sensor_id;sensor_type;location;lat;lon;timestamp;pressure;altitude;pressure_sealevel;temperature;humidity
21109;BME280;10712;52.944;9.098;2023-05-21T00:02:14;101915.75;;;21.72;49.87
21109;BME280;10712;52.944;9.098;2023-05-21T00:04:43;101910.59;;;21.69;49.99
21109;BME280;10712;52.944;9.098;2023-05-21T00:07:10;101906.16;;;21.68;50.31
21109;BME280;10712;52.944;9.098;2023-05-21T00:09:38;101910.16;;;21.64;50.49
21109;BME280;10712;52.944;9.098;2023-05-21T00:12:08;101902.28;;;21.61;50.17
21109;BME280;10712;52.944;9.098;2023-05-21T00:14:34;101903.00;;;21.63;50.21
21109;BME280;10712;52.944;9.098;2023-05-21T00:17:00;101893.16;;;21.62;50.51
21109;BME280;10712;52.944;9.098;2023-05-21T00:19:26;101886.13;;;21.59;50.31
21109;BME280;10712;52.944;9.098;2023-05-21T00:21:52;101889.25;;;21.55;50.41
21109;BME280;10712;52.944;9.098;2023-05-21T00:24:19;101885.78;;;21.53;50.62
21109;BME280;10712;52.944;9.098;2023-05-21T00:26:45;101892.09;;;21.53;50.70
21109;BME280;10712;52.944;9.098;2023-05-21T00:29:10;101882.34;;;21.51;50.37
21109;BME280;10712;52.944;9.098;2023-05-21T00:31:36;101884.22;;;21.50;50.46
21109;BME280;10712;52.944;9.098;2023-05-21T00:34:02;101884.34;;;21.49;50.70
21109;BME280;10712;52.944;9.098;2023-05-21T00:36:28;101878.19;;;21.47;50.45
21109;BME280;10712;52.944;9.098;2023-05-21T00:38:55;101866.78;;;21.43;50.26
21109;BME280;10712;52.944;9.098;2023-05-21T00:41:21;101866.91;;;21.42;50.19
21109;BME280;10712;52.944;9.098;2023-05-21T00:43:47;101867.44;;;21.36;50.47
21109;BME280;10712;52.944;9.098;2023-05-21T00:46:18;101872.84;;;21.36;50.43
21109;BME280;10712;52.944;9.098;2023-05-21T00:48:45;101874.81;;;21.34;50.45
21109;BME280;10712;52.944;9.098;2023-05-21T00:51:13;101877.94;;;21.29;50.38
21109;BME280;10712;52.944;9.098;2023-05-21T00:53:39;101877.31;;;21.26;50.49
21109;BME280;10712;52.944;9.098;2023-05-21T00:56:06;101872.44;;;21.19;50.31
21109;BME280;10712;52.944;9.098;2023-05-21T00:58:32;101876.38;;;21.15;50.40
21109;BME280;10712;52.944;9.098;2023-05-21T01:00:59;101870.09;;;21.15;50.35
21109;BME280;10712;52.944;9.098;2023-05-21T01:03:31;101865.19;;;21.09;50.50
21109;BME280;10712;52.944;9.098;2023-05-21T01:06:04;101863.47;;;21.08;50.70
21109;BME280;10712;52.944;9.098;2023-05-21T01:08:32;101864.31;;;21.08;50.55
21109;BME280;10712;52.944;9.098;2023-05-21T01:11:01;101861.75;;;21.07;50.47
21109;BME280;10712;52.944;9.098;2023-05-21T01:13:28;101866.28;;;21.06;50.38
21109;BME280;10712;52.944;9.098;2023-05-21T01:15:56;101865.44;;;21.06;50.57
21109;BME280;10712;52.944;9.098;2023-05-21T01:18:24;101859.41;;;21.02;50.53
21109;BME280;10712;52.944;9.098;2023-05-21T01:20:50;101858.06;;;20.97;50.31
21109;BME280;10712;52.944;9.098;2023-05-21T01:23:18;101849.25;;;20.95;50.47
21109;BME280;10712;52.944;9.098;2023-05-21T01:25:46;101854.16;;;20.90;50.67
21109;BME280;10712;52.944;9.098;2023-05-21T01:28:12;101860.72;;;20.87;50.50
21109;BME280;10712;52.944;9.098;2023-05-21T01:30:40;101854.09;;;20.80;50.67
21109;BME280;10712;52.944;9.098;2023-05-21T01:33:23;101855.31;;;20.76;50.91
21109;BME280;10712;52.944;9.098;2023-05-21T01:39:28;101850.19;;;20.62;51.07
21109;BME280;10712;52.944;9.098;2023-05-21T01:41:59;101844.78;;;20.62;51.18
21109;BME280;10712;52.944;9.098;2023-05-21T01:44:29;101844.78;;;20.62;51.12
21109;BME280;10712;52.944;9.098;2023-05-21T01:46:57;101841.59;;;20.57;51.07
21109;BME280;10712;52.944;9.098;2023-05-21T01:49:24;101850.69;;;20.56;51.29
21109;BME280;10712;52.944;9.098;2023-05-21T01:51:50;101843.56;;;20.55;51.17
21109;BME280;10712;52.944;9.098;2023-05-21T01:54:16;101846.66;;;20.50;51.10
21109;BME280;10712;52.944;9.098;2023-05-21T01:56:42;101847.75;;;20.48;51.28
21109;BME280;10712;52.944;9.098;2023-05-21T01:59:09;101839.16;;;20.42;51.32
21109;BME280;10712;52.944;9.098;2023-05-21T02:01:35;101835.97;;;20.37;51.56
21109;BME280;10712;52.944;9.098;2023-05-21T02:04:00;101830.94;;;20.44;51.20
21109;BME280;10712;52.944;9.098;2023-05-21T02:06:26;101832.03;;;20.41;51.56
21109;BME280;10712;52.944;9.098;2023-05-21T02:08:52;101837.44;;;20.41;51.71
21109;BME280;10712;52.944;9.098;2023-05-21T02:11:18;101832.28;;;20.38;51.86
21109;BME280;10712;52.944;9.098;2023-05-21T02:13:44;101830.44;;;20.39;51.61
21109;BME280;10712;52.944;9.098;2023-05-21T02:16:11;101831.16;;;20.41;51.73
21109;BME280;10712;52.944;9.098;2023-05-21T02:18:40;101826.03;;;20.38;51.61
21109;BME280;10712;52.944;9.098;2023-05-21T02:21:09;101824.88;;;20.40;51.64
21109;BME280;10712;52.944;9.098;2023-05-21T02:23:38;101828.59;;;20.39;51.80
21109;BME280;10712;52.944;9.098;2023-05-21T02:26:03;101832.03;;;20.41;51.38
21109;BME280;10712;52.944;9.098;2023-05-21T02:28:29;101834.25;;;20.36;51.55
21109;BME280;10712;52.944;9.098;2023-05-21T02:30:55;101830.81;;;20.34;51.81
21109;BME280;10712;52.944;9.098;2023-05-21T02:33:22;101829.19;;;20.32;51.50
21109;BME280;10712;52.944;9.098;2023-05-21T02:35:47;101826.50;;;20.32;51.49
21109;BME280;10712;52.944;9.098;2023-05-21T02:38:13;101820.97;;;20.33;51.49
21109;BME280;10712;52.944;9.098;2023-05-21T02:40:46;101825.63;;;20.31;51.50
21109;BME280;10712;52.944;9.098;2023-05-21T02:43:12;101820.22;;;20.31;51.64
21109;BME280;10712;52.944;9.098;2023-05-21T02:45:38;101825.88;;;20.28;51.68
21109;BME280;10712;52.944;9.098;2023-05-21T02:48:04;101827.84;;;20.26;51.55
21109;BME280;10712;52.944;9.098;2023-05-21T02:50:34;101827.34;;;20.21;51.60
21109;BME280;10712;52.944;9.098;2023-05-21T02:53:00;101826.13;;;20.14;51.28
21109;BME280;10712;52.944;9.098;2023-05-21T02:55:26;101814.84;;;20.09;51.24
21109;BME280;10712;52.944;9.098;2023-05-21T02:57:52;101813.09;;;20.08;51.49
21109;BME280;10712;52.944;9.098;2023-05-21T03:00:18;101812.63;;;20.03;51.62
21109;BME280;10712;52.944;9.098;2023-05-21T03:02:44;101809.44;;;19.98;51.49
21109;BME280;10712;52.944;9.098;2023-05-21T03:05:10;101808.06;;;19.92;51.30
21109;BME280;10712;52.944;9.098;2023-05-21T03:07:36;101806.84;;;19.85;51.42
21109;BME280;10712;52.944;9.098;2023-05-21T03:10:02;101807.34;;;19.79;51.68
21109;BME280;10712;52.944;9.098;2023-05-21T03:12:27;101806.47;;;19.79;51.39
21109;BME280;10712;52.944;9.098;2023-05-21T03:14:53;101801.34;;;19.76;51.70
21109;BME280;10712;52.944;9.098;2023-05-21T03:17:20;101803.28;;;19.74;51.75
21109;BME280;10712;52.944;9.098;2023-05-21T03:19:46;101803.28;;;19.74;51.71
21109;BME280;10712;52.944;9.098;2023-05-21T03:22:13;101807.22;;;19.70;51.86
21109;BME280;10712;52.944;9.098;2023-05-21T03:24:39;101810.91;;;19.69;51.72
21109;BME280;10712;52.944;9.098;2023-05-21T03:27:06;101814.38;;;19.71;51.44
21109;BME280;10712;52.944;9.098;2023-05-21T03:29:33;101807.22;;;19.70;51.60
21109;BME280;10712;52.944;9.098;2023-05-21T03:32:00;101807.22;;;19.70;51.47
21109;BME280;10712;52.944;9.098;2023-05-21T03:34:26;101802.31;;;19.63;51.82
21109;BME280;10712;52.944;9.098;2023-05-21T03:36:52;101802.31;;;19.63;51.91
21109;BME280;10712;52.944;9.098;2023-05-21T03:39:19;101798.88;;;19.61;51.93
21109;BME280;10712;52.944;9.098;2023-05-21T03:41:45;101799.84;;;19.60;51.70
21109;BME280;10712;52.944;9.098;2023-05-21T03:44:21;101801.69;;;19.60;51.90
21109;BME280;10712;52.944;9.098;2023-05-21T03:46:55;101802.78;;;19.57;51.80
21109;BME280;10712;52.944;9.098;2023-05-21T03:49:24;101808.19;;;19.57;52.03
21109;BME280;10712;52.944;9.098;2023-05-21T03:51:53;101799.59;;;19.52;52.14
21109;BME280;10712;52.944;9.098;2023-05-21T03:54:19;101803.03;;;19.54;51.91
21109;BME280;10712;52.944;9.098;2023-05-21T03:56:47;101804.13;;;19.52;51.88
21109;BME280;10712;52.944;9.098;2023-05-21T03:59:13;101818.78;;;19.49;52.03
21109;BME280;10712;52.944;9.098;2023-05-21T04:01:39;101806.13;;;19.50;52.17
21109;BME280;10712;52.944;9.098;2023-05-21T04:04:06;101806.22;;;19.48;52.16
21109;BME280;10712;52.944;9.098;2023-05-21T04:06:32;101802.41;;;19.51;52.32
21109;BME280;10712;52.944;9.098;2023-05-21T04:08:58;101805.00;;;19.52;52.25
21109;BME280;10712;52.944;9.098;2023-05-21T04:11:23;101810.41;;;19.52;52.27
21109;BME280;10712;52.944;9.098;2023-05-21T04:13:49;101810.41;;;19.52;52.34
21109;BME280;10712;52.944;9.098;2023-05-21T04:16:16;101811.91;;;19.56;52.44
21109;BME280;10712;52.944;9.098;2023-05-21T04:18:46;101808.06;;;19.59;52.52
21109;BME280;10712;52.944;9.098;2023-05-21T04:21:14;101806.97;;;19.61;52.68
21109;BME280;10712;52.944;9.098;2023-05-21T04:23:40;101810.66;;;19.60;52.55
21109;BME280;10712;52.944;9.098;2023-05-21T04:26:13;101812.88;;;19.66;52.67
21109;BME280;10712;52.944;9.098;2023-05-21T04:28:41;101803.56;;;19.71;52.58
21109;BME280;10712;52.944;9.098;2023-05-21T04:31:08;101808.69;;;19.74;52.43
21109;BME280;10712;52.944;9.098;2023-05-21T04:33:34;101805.00;;;19.75;52.14
21109;BME280;10712;52.944;9.098;2023-05-21T04:36:00;101809.94;;;19.81;52.04
21109;BME280;10712;52.944;9.098;2023-05-21T04:38:26;101813.38;;;19.83;52.27
21109;BME280;10712;52.944;9.098;2023-05-21T04:40:52;101813.75;;;19.89;52.03
21109;BME280;10712;52.944;9.098;2023-05-21T04:43:19;101813.47;;;19.92;52.31
21109;BME280;10712;52.944;9.098;2023-05-21T04:45:52;101804.38;;;19.93;52.09
21109;BME280;10712;52.944;9.098;2023-05-21T04:48:23;101808.69;;;19.96;51.98
21109;BME280;10712;52.944;9.098;2023-05-21T04:50:50;101802.03;;;20.00;51.93
21109;BME280;10712;52.944;9.098;2023-05-21T04:53:16;101798.13;;;20.04;52.05
21109;BME280;10712;52.944;9.098;2023-05-21T04:55:42;101798.72;;;20.08;51.81
21109;BME280;10712;52.944;9.098;2023-05-21T04:58:08;101801.06;;;20.12;51.86
21109;BME280;10712;52.944;9.098;2023-05-21T05:00:37;101792.69;;;20.15;52.20
21109;BME280;10712;52.944;9.098;2023-05-21T05:03:04;101799.31;;;20.22;52.12
21109;BME280;10712;52.944;9.098;2023-05-21T05:05:30;101791.66;;;20.27;52.16
21109;BME280;10712;52.944;9.098;2023-05-21T05:07:56;101788.84;;;20.29;52.20
21109;BME280;10712;52.944;9.098;2023-05-21T05:10:23;101787.97;;;20.28;52.28
21109;BME280;10712;52.944;9.098;2023-05-21T05:12:49;101788.38;;;20.35;52.11
21109;BME280;10712;52.944;9.098;2023-05-21T05:15:16;101801.28;;;20.42;52.13
21109;BME280;10712;52.944;9.098;2023-05-21T05:17:43;101803.84;;;20.44;52.01
21109;BME280;10712;52.944;9.098;2023-05-21T05:20:10;101795.34;;;20.49;51.95
21109;BME280;10712;52.944;9.098;2023-05-21T05:22:36;101802.25;;;20.53;51.83
21109;BME280;10712;52.944;9.098;2023-05-21T05:25:02;101799.53;;;20.53;51.96
21109;BME280;10712;52.944;9.098;2023-05-21T05:27:28;101793.38;;;20.51;51.93
21109;BME280;10712;52.944;9.098;2023-05-21T05:29:54;101794.25;;;20.51;51.98
21109;BME280;10712;52.944;9.098;2023-05-21T05:32:20;101792.28;;;20.53;52.04
21109;BME280;10712;52.944;9.098;2023-05-21T05:34:46;101783.47;;;20.61;52.13
21109;BME280;10712;52.944;9.098;2023-05-21T05:37:11;101789.84;;;20.71;52.10
21109;BME280;10712;52.944;9.098;2023-05-21T05:39:37;101790.47;;;20.74;51.78
21109;BME280;10712;52.944;9.098;2023-05-21T05:42:04;101798.44;;;20.76;52.08
21109;BME280;10712;52.944;9.098;2023-05-21T05:44:29;101776.53;;;20.79;51.99
21109;BME280;10712;52.944;9.098;2023-05-21T05:46:56;101788.09;;;20.81;51.90
21109;BME280;10712;52.944;9.098;2023-05-21T05:49:22;101781.88;;;20.90;51.82
21109;BME280;10712;52.944;9.098;2023-05-21T05:51:48;101777.66;;;20.97;51.63
21109;BME280;10712;52.944;9.098;2023-05-21T05:54:14;101778.13;;;21.02;51.94
21109;BME280;10712;52.944;9.098;2023-05-21T05:56:40;101779.31;;;21.09;51.75
21109;BME280;10712;52.944;9.098;2023-05-21T05:59:06;101775.34;;;21.13;52.06
21109;BME280;10712;52.944;9.098;2023-05-21T06:01:34;101780.03;;;21.23;51.73
21109;BME280;10712;52.944;9.098;2023-05-21T06:04:00;101781.47;;;21.27;51.76
21109;BME280;10712;52.944;9.098;2023-05-21T06:06:26;101778.09;;;21.34;51.64
21109;BME280;10712;52.944;9.098;2023-05-21T06:08:52;101778.41;;;21.41;51.51
21109;BME280;10712;52.944;9.098;2023-05-21T06:11:19;101777.28;;;21.43;51.57
21109;BME280;10712;52.944;9.098;2023-05-21T06:13:46;101779.72;;;21.46;51.85
21109;BME280;10712;52.944;9.098;2023-05-21T06:16:13;101779.31;;;21.51;51.98
21109;BME280;10712;52.944;9.098;2023-05-21T06:18:39;101776.78;;;21.59;51.50
21109;BME280;10712;52.944;9.098;2023-05-21T06:21:05;101767.09;;;21.66;51.26
21109;BME280;10712;52.944;9.098;2023-05-21T06:23:31;101775.44;;;21.74;51.18
21109;BME280;10712;52.944;9.098;2023-05-21T06:25:57;101776.59;;;21.81;51.15
21109;BME280;10712;52.944;9.098;2023-05-21T06:28:25;101775.06;;;21.88;51.10
21109;BME280;10712;52.944;9.098;2023-05-21T06:30:52;101773.50;;;21.95;51.00
21109;BME280;10712;52.944;9.098;2023-05-21T06:33:18;101772.84;;;22.03;50.86
21109;BME280;10712;52.944;9.098;2023-05-21T06:35:44;101770.31;;;22.11;51.03
21109;BME280;10712;52.944;9.098;2023-05-21T06:38:11;101770.63;;;22.18;50.93
21109;BME280;10712;52.944;9.098;2023-05-21T06:40:37;101778.06;;;22.25;50.79
21109;BME280;10712;52.944;9.098;2023-05-21T06:43:03;101773.63;;;22.34;50.52
21109;BME280;10712;52.944;9.098;2023-05-21T06:45:35;101776.22;;;22.45;50.68
21109;BME280;10712;52.944;9.098;2023-05-21T06:48:10;101771.94;;;22.52;50.51
21109;BME280;10712;52.944;9.098;2023-05-21T06:50:37;101767.66;;;22.59;50.36
21109;BME280;10712;52.944;9.098;2023-05-21T06:53:03;101771.53;;;22.66;50.25
21109;BME280;10712;52.944;9.098;2023-05-21T06:55:29;101768.25;;;22.72;50.17
21109;BME280;10712;52.944;9.098;2023-05-21T06:58:08;101766.69;;;22.80;50.49
21109;BME280;10712;52.944;9.098;2023-05-21T07:00:34;101757.97;;;22.86;50.52
21109;BME280;10712;52.944;9.098;2023-05-21T07:03:00;101753.94;;;22.90;50.40
21109;BME280;10712;52.944;9.098;2023-05-21T07:05:25;101755.41;;;22.94;49.96
21109;BME280;10712;52.944;9.098;2023-05-21T07:07:53;101757.81;;;22.97;50.25
21109;BME280;10712;52.944;9.098;2023-05-21T07:10:19;101751.38;;;22.98;50.27
21109;BME280;10712;52.944;9.098;2023-05-21T07:12:45;101752.50;;;23.05;50.07
21109;BME280;10712;52.944;9.098;2023-05-21T07:15:12;101748.19;;;23.12;50.19
21109;BME280;10712;52.944;9.098;2023-05-21T07:17:38;101748.78;;;23.15;49.78
21109;BME280;10712;52.944;9.098;2023-05-21T07:20:05;101747.34;;;23.21;49.70
21109;BME280;10712;52.944;9.098;2023-05-21T07:22:32;101752.19;;;23.27;49.94
21109;BME280;10712;52.944;9.098;2023-05-21T07:24:58;101764.19;;;23.34;50.23
21109;BME280;10712;52.944;9.098;2023-05-21T07:27:24;101753.84;;;23.38;50.15
21109;BME280;10712;52.944;9.098;2023-05-21T07:29:51;101751.00;;;23.39;50.23
21109;BME280;10712;52.944;9.098;2023-05-21T07:32:17;101744.94;;;23.45;50.10
21109;BME280;10712;52.944;9.098;2023-05-21T07:34:43;101746.41;;;23.49;50.41
21109;BME280;10712;52.944;9.098;2023-05-21T07:37:09;101746.97;;;23.53;49.91
21109;BME280;10712;52.944;9.098;2023-05-21T07:39:34;101746.41;;;23.49;50.04
21109;BME280;10712;52.944;9.098;2023-05-21T07:42:02;101750.13;;;23.48;49.82
21109;BME280;10712;52.944;9.098;2023-05-21T07:44:28;101748.13;;;23.50;49.91
21109;BME280;10712;52.944;9.098;2023-05-21T07:46:54;101747.53;;;23.57;49.90
21109;BME280;10712;52.944;9.098;2023-05-21T07:49:21;101750.53;;;23.63;50.13
21109;BME280;10712;52.944;9.098;2023-05-21T07:51:47;101744.34;;;23.71;50.04
21109;BME280;10712;52.944;9.098;2023-05-21T07:54:14;101741.44;;;23.72;50.11
21109;BME280;10712;52.944;9.098;2023-05-21T07:56:41;101736.25;;;23.79;50.47
21109;BME280;10712;52.944;9.098;2023-05-21T07:59:12;101739.69;;;23.81;50.44
21109;BME280;10712;52.944;9.098;2023-05-21T08:01:38;101738.81;;;23.80;50.32
21109;BME280;10712;52.944;9.098;2023-05-21T08:04:05;101726.66;;;23.84;50.38
21109;BME280;10712;52.944;9.098;2023-05-21T08:06:33;101730.28;;;23.93;50.17
21109;BME280;10712;52.944;9.098;2023-05-21T08:09:00;101735.16;;;23.99;50.16
21109;BME280;10712;52.944;9.098;2023-05-21T08:11:29;101733.94;;;24.11;50.12
21109;BME280;10712;52.944;9.098;2023-05-21T08:13:55;101736.31;;;24.24;49.66
21109;BME280;10712;52.944;9.098;2023-05-21T08:16:22;101735.16;;;24.26;49.56
21109;BME280;10712;52.944;9.098;2023-05-21T08:18:49;101736.25;;;24.33;49.43
21109;BME280;10712;52.944;9.098;2023-05-21T08:21:15;101738.34;;;24.40;49.71
21109;BME280;10712;52.944;9.098;2023-05-21T08:23:43;101733.59;;;24.42;49.44
21109;BME280;10712;52.944;9.098;2023-05-21T08:26:09;101731.56;;;24.44;49.76
21109;BME280;10712;52.944;9.098;2023-05-21T08:28:38;101738.44;;;24.48;49.52
21109;BME280;10712;52.944;9.098;2023-05-21T08:31:03;101737.09;;;24.52;49.53
21109;BME280;10712;52.944;9.098;2023-05-21T08:33:34;101733.75;;;24.58;49.53
21109;BME280;10712;52.944;9.098;2023-05-21T08:36:06;101730.03;;;24.59;49.26
21109;BME280;10712;52.944;9.098;2023-05-21T08:38:37;101742.00;;;24.66;49.45
21109;BME280;10712;52.944;9.098;2023-05-21T08:41:17;101732.72;;;24.77;49.55
21109;BME280;10712;52.944;9.098;2023-05-21T08:43:47;101743.84;;;24.83;49.40
21109;BME280;10712;52.944;9.098;2023-05-21T08:46:15;101736.06;;;24.88;49.17
21109;BME280;10712;52.944;9.098;2023-05-21T08:48:43;101739.44;;;25.00;49.10
21109;BME280;10712;52.944;9.098;2023-05-21T08:51:11;101735.19;;;25.05;48.53
21109;BME280;10712;52.944;9.098;2023-05-21T08:53:44;101731.84;;;25.11;48.55
21109;BME280;10712;52.944;9.098;2023-05-21T08:56:15;101725.44;;;25.21;48.38
21109;BME280;10712;52.944;9.098;2023-05-21T08:58:45;101720.19;;;25.27;48.63
21109;BME280;10712;52.944;9.098;2023-05-21T09:01:14;101718.03;;;25.39;48.49
21109;BME280;10712;52.944;9.098;2023-05-21T09:03:45;101717.25;;;25.55;47.93
21109;BME280;10712;52.944;9.098;2023-05-21T09:06:12;101720.94;;;25.63;47.85
21109;BME280;10712;52.944;9.098;2023-05-21T09:08:43;101714.81;;;25.69;47.62
21109;BME280;10712;52.944;9.098;2023-05-21T09:11:22;101723.22;;;25.84;48.18
21109;BME280;10712;52.944;9.098;2023-05-21T09:13:54;101722.06;;;25.95;47.87
21109;BME280;10712;52.944;9.098;2023-05-21T09:16:31;101718.03;;;26.07;47.37
21109;BME280;10712;52.944;9.098;2023-05-21T09:18:57;101714.97;;;26.18;47.00
21109;BME280;10712;52.944;9.098;2023-05-21T09:21:29;101708.53;;;26.27;46.82
21109;BME280;10712;52.944;9.098;2023-05-21T09:24:11;101707.50;;;26.36;47.19
21109;BME280;10712;52.944;9.098;2023-05-21T09:26:42;101714.69;;;26.45;47.44
21109;BME280;10712;52.944;9.098;2023-05-21T09:29:08;101721.03;;;26.54;47.41
21109;BME280;10712;52.944;9.098;2023-05-21T09:31:34;101711.13;;;26.61;47.41
21109;BME280;10712;52.944;9.098;2023-05-21T09:34:01;101710.09;;;26.70;46.77
21109;BME280;10712;52.944;9.098;2023-05-21T09:36:27;101716.09;;;26.74;46.73
21109;BME280;10712;52.944;9.098;2023-05-21T09:38:54;101717.28;;;26.79;46.48
21109;BME280;10712;52.944;9.098;2023-05-21T09:41:31;101718.81;;;26.82;46.34
21109;BME280;10712;52.944;9.098;2023-05-21T09:44:02;101717.81;;;26.91;46.31
21109;BME280;10712;52.944;9.098;2023-05-21T09:46:39;101711.28;;;26.84;46.30
21109;BME280;10712;52.944;9.098;2023-05-21T09:49:24;101712.34;;;26.91;46.15
21109;BME280;10712;52.944;9.098;2023-05-21T09:51:55;101709.59;;;26.99;46.10
21109;BME280;10712;52.944;9.098;2023-05-21T09:54:23;101706.53;;;27.10;46.42
21109;BME280;10712;52.944;9.098;2023-05-21T09:56:50;101703.09;;;27.16;46.88
21109;BME280;10712;52.944;9.098;2023-05-21T09:59:20;101690.91;;;27.27;46.19
21109;BME280;10712;52.944;9.098;2023-05-21T10:01:49;101696.53;;;27.33;46.15
21109;BME280;10712;52.944;9.098;2023-05-21T10:04:16;101691.75;;;27.35;45.90
21109;BME280;10712;52.944;9.098;2023-05-21T10:06:44;101688.63;;;27.38;46.05
21109;BME280;10712;52.944;9.098;2023-05-21T10:09:17;101691.91;;;27.34;46.22
21109;BME280;10712;52.944;9.098;2023-05-21T10:11:45;101689.34;;;27.32;46.39
21109;BME280;10712;52.944;9.098;2023-05-21T10:14:19;101692.44;;;27.37;46.42
21109;BME280;10712;52.944;9.098;2023-05-21T10:16:47;101687.97;;;27.44;46.58
21109;BME280;10712;52.944;9.098;2023-05-21T10:19:14;101681.25;;;27.47;46.50
21109;BME280;10712;52.944;9.098;2023-05-21T10:21:41;101688.28;;;27.50;46.58
21109;BME280;10712;52.944;9.098;2023-05-21T10:24:10;101680.75;;;27.52;46.41
21109;BME280;10712;52.944;9.098;2023-05-21T10:26:38;101686.56;;;27.57;46.54
21109;BME280;10712;52.944;9.098;2023-05-21T10:29:04;101673.19;;;27.62;46.47
21109;BME280;10712;52.944;9.098;2023-05-21T10:31:30;101674.56;;;27.66;46.36
21109;BME280;10712;52.944;9.098;2023-05-21T10:33:59;101680.16;;;27.72;46.21
21109;BME280;10712;52.944;9.098;2023-05-21T10:36:29;101670.34;;;27.86;47.06
21109;BME280;10712;52.944;9.098;2023-05-21T10:38:59;101667.19;;;27.97;46.92
21109;BME280;10712;52.944;9.098;2023-05-21T10:41:32;101664.03;;;28.08;46.79
21109;BME280;10712;52.944;9.098;2023-05-21T10:44:26;101659.56;;;28.15;46.53
21109;BME280;10712;52.944;9.098;2023-05-21T10:50:43;101655.28;;;28.36;46.56
21109;BME280;10712;52.944;9.098;2023-05-21T10:53:31;101653.47;;;28.51;46.22
21109;BME280;10712;52.944;9.098;2023-05-21T10:56:08;101647.84;;;28.67;46.35
21109;BME280;10712;52.944;9.098;2023-05-21T11:01:28;101652.16;;;28.84;45.35
21109;BME280;10712;52.944;9.098;2023-05-21T11:03:58;101649.03;;;28.87;45.54
21109;BME280;10712;52.944;9.098;2023-05-21T11:06:25;101648.22;;;29.02;45.16
21109;BME280;10712;52.944;9.098;2023-05-21T11:08:51;101639.72;;;29.11;44.61
21109;BME280;10712;52.944;9.098;2023-05-21T11:11:40;101639.81;;;29.18;43.59
21109;BME280;10712;52.944;9.098;2023-05-21T11:14:31;101639.03;;;29.24;43.92
21109;BME280;10712;52.944;9.098;2023-05-21T11:17:02;101639.63;;;29.34;43.76
21109;BME280;10712;52.944;9.098;2023-05-21T11:19:37;101638.84;;;29.40;44.33
21109;BME280;10712;52.944;9.098;2023-05-21T11:22:30;101633.25;;;29.48;44.20
21109;BME280;10712;52.944;9.098;2023-05-21T11:25:01;101636.66;;;29.65;44.19
21109;BME280;10712;52.944;9.098;2023-05-21T11:30:06;101626.34;;;29.88;44.67
21109;BME280;10712;52.944;9.098;2023-05-21T11:35:57;101620.28;;;30.07;44.44
21109;BME280;10712;52.944;9.098;2023-05-21T11:38:29;101603.63;;;30.15;43.48
21109;BME280;10712;52.944;9.098;2023-05-21T11:41:03;101600.94;;;30.22;43.32
21109;BME280;10712;52.944;9.098;2023-05-21T11:43:29;101600.22;;;30.35;42.22
21109;BME280;10712;52.944;9.098;2023-05-21T11:45:55;101606.63;;;30.42;42.32
21109;BME280;10712;52.944;9.098;2023-05-21T11:48:25;101596.16;;;30.52;41.85
21109;BME280;10712;52.944;9.098;2023-05-21T11:50:51;101592.41;;;30.60;42.07
21109;BME280;10712;52.944;9.098;2023-05-21T11:53:17;101600.06;;;30.64;42.39
21109;BME280;10712;52.944;9.098;2023-05-21T11:55:45;101587.00;;;30.73;42.07
21109;BME280;10712;52.944;9.098;2023-05-21T11:58:12;101597.06;;;30.87;41.63
21109;BME280;10712;52.944;9.098;2023-05-21T12:00:39;101588.88;;;31.00;41.52
21109;BME280;10712;52.944;9.098;2023-05-21T12:03:05;101591.50;;;31.08;41.35
21109;BME280;10712;52.944;9.098;2023-05-21T12:05:46;101591.50;;;31.08;41.20
21109;BME280;10712;52.944;9.098;2023-05-21T12:08:12;101582.66;;;31.19;40.90
21109;BME280;10712;52.944;9.098;2023-05-21T12:10:38;101588.19;;;31.26;41.01
21109;BME280;10712;52.944;9.098;2023-05-21T12:13:04;101584.41;;;31.34;41.44
21109;BME280;10712;52.944;9.098;2023-05-21T12:15:31;101578.94;;;31.47;42.29
21109;BME280;10712;52.944;9.098;2023-05-21T12:17:57;101578.56;;;31.56;41.26
21109;BME280;10712;52.944;9.098;2023-05-21T12:20:25;101573.97;;;31.70;40.16
21109;BME280;10712;52.944;9.098;2023-05-21T12:22:52;101573.59;;;31.80;40.48
21109;BME280;10712;52.944;9.098;2023-05-21T12:25:22;101570.41;;;31.83;40.51
21109;BME280;10712;52.944;9.098;2023-05-21T12:27:48;101568.09;;;31.86;39.67
21109;BME280;10712;52.944;9.098;2023-05-21T12:30:17;101572.97;;;31.84;39.89
21109;BME280;10712;52.944;9.098;2023-05-21T12:32:42;101564.91;;;31.83;40.15
21109;BME280;10712;52.944;9.098;2023-05-21T12:35:19;101567.25;;;31.79;40.34
21109;BME280;10712;52.944;9.098;2023-05-21T12:37:45;101563.22;;;31.88;40.63
21109;BME280;10712;52.944;9.098;2023-05-21T12:40:11;101559.19;;;31.97;39.95
21109;BME280;10712;52.944;9.098;2023-05-21T12:42:37;101558.34;;;32.03;39.56
21109;BME280;10712;52.944;9.098;2023-05-21T12:45:08;101553.28;;;32.00;39.12
21109;BME280;10712;52.944;9.098;2023-05-21T12:47:35;101563.00;;;31.96;39.62
21109;BME280;10712;52.944;9.098;2023-05-21T12:50:04;101548.63;;;32.01;39.53
21109;BME280;10712;52.944;9.098;2023-05-21T12:52:39;101547.78;;;32.07;40.28
21109;BME280;10712;52.944;9.098;2023-05-21T12:55:08;101550.34;;;32.15;40.03
21109;BME280;10712;52.944;9.098;2023-05-21T12:57:37;101549.28;;;32.23;39.39
21109;BME280;10712;52.944;9.098;2023-05-21T13:00:05;101546.94;;;32.33;39.16
21109;BME280;10712;52.944;9.098;2023-05-21T13:02:37;101548.22;;;32.37;38.66
21109;BME280;10712;52.944;9.098;2023-05-21T13:05:08;101546.72;;;32.47;38.18
21109;BME280;10712;52.944;9.098;2023-05-21T13:07:37;101540.75;;;32.57;38.00
21109;BME280;10712;52.944;9.098;2023-05-21T13:10:05;101544.34;;;32.64;37.42
21109;BME280;10712;52.944;9.098;2023-05-21T13:12:32;101541.41;;;32.72;37.48